sensor_id;sensor_type;location;lat;lon;timestamp;P1;durP1;ratioP1;P2;durP2;ratioP2
46757;SDS011;32509;47.750;-3.396;2023-04-25T00:01:14;8.07;;;3.55;;
46757;SDS011;32509;47.750;-3.396;2023-04-25T00:03:40;7.40;;;3.10;;
46757;SDS011;32509;47.750;-3.396;2023-04-25T00:06:06;6.72;;;3.00;;
46757;SDS011;32509;47.750;-3.396;2023-04-25T00:08:32;8.18;;;3.72;;
46757;SDS011;32509;47.750;-3.396;2023-04-25T00:10:58;10.10;;;3.80;;
46757;SDS011;32509;47.750;-3.396;2023-04-25T00:13:24;8.45;;;3.53;;
46757;SDS011;32509;47.750;-3.396;2023-04-25T00:15:51;6.43;;;3.50;;
46757;SDS011;32509;47.750;-3.396;2023-04-25T00:18:18;6.70;;;3.10;;
46757;SDS011;32509;47.750;-3.396;2023-04-25T00:20:45;12.45;;;3.95;;
46757;SDS011;32509;47.750;-3.396;2023-04-25T00:23:15;14.63;;;3.47;;
46757;SDS011;32509;47.750;-3.396;2023-04-25T00:25:43;9.30;;;3.60;;
46757;SDS011;32509;47.750;-3.396;2023-04-25T00:28:10;11.65;;;4.32;;
46757;SDS011;32509;47.750;-3.396;2023-04-25T00:30:37;5.97;;;3.13;;
46757;SDS011;32509;47.750;-3.396;2023-04-25T00:33:03;6.15;;;3.20;;
46757;SDS011;32509;47.750;-3.396;2023-04-25T00:35:29;7.20;;;3.28;;
46757;SDS011;32509;47.750;-3.396;2023-04-25T00:37:55;6.43;;;3.10;;
46757;SDS011;32509;47.750;-3.396;2023-04-25T00:40:21;10.18;;;3.33;;
46757;SDS011;32509;47.750;-3.396;2023-04-25T00:42:47;9.02;;;2.95;;
46757;SDS011;32509;47.750;-3.396;2023-04-25T00:45:13;10.90;;;3.90;;
46757;SDS011;32509;47.750;-3.396;2023-04-25T00:47:41;9.85;;;3.25;;
46757;SDS011;32509;47.750;-3.396;2023-04-25T00:50:07;11.15;;;4.18;;
46757;SDS011;32509;47.750;-3.396;2023-04-25T00:52:34;8.60;;;3.65;;
46757;SDS011;32509;47.750;-3.396;2023-04-25T00:55:00;12.63;;;3.15;;
46757;SDS011;32509;47.750;-3.396;2023-04-25T00:57:26;10.10;;;3.67;;
46757;SDS011;32509;47.750;-3.396;2023-04-25T00:59:53;9.98;;;3.40;;
46757;SDS011;32509;47.750;-3.396;2023-04-25T01:02:20;6.53;;;3.42;;
46757;SDS011;32509;47.750;-3.396;2023-04-25T01:04:47;10.00;;;3.20;;
46757;SDS011;32509;47.750;-3.396;2023-04-25T01:07:13;7.35;;;4.05;;
46757;SDS011;32509;47.750;-3.396;2023-04-25T01:09:40;7.47;;;4.18;;
46757;SDS011;32509;47.750;-3.396;2023-04-25T01:12:06;11.23;;;6.00;;
46757;SDS011;32509;47.750;-3.396;2023-04-25T01:14:32;14.13;;;6.38;;
46757;SDS011;32509;47.750;-3.396;2023-04-25T01:16:58;10.48;;;4.63;;
46757;SDS011;32509;47.750;-3.396;2023-04-25T01:19:24;7.32;;;3.90;;
46757;SDS011;32509;47.750;-3.396;2023-04-25T01:21:50;12.07;;;4.10;;
46757;SDS011;32509;47.750;-3.396;2023-04-25T01:24:16;8.43;;;3.65;;
46757;SDS011;32509;47.750;-3.396;2023-04-25T01:26:42;9.27;;;3.60;;
46757;SDS011;32509;47.750;-3.396;2023-04-25T01:29:18;9.07;;;4.43;;
46757;SDS011;32509;47.750;-3.396;2023-04-25T01:31:45;5.68;;;3.97;;
46757;SDS011;32509;47.750;-3.396;2023-04-25T01:34:12;9.00;;;4.55;;
46757;SDS011;32509;47.750;-3.396;2023-04-25T01:36:38;6.68;;;3.25;;
46757;SDS011;32509;47.750;-3.396;2023-04-25T01:39:05;7.30;;;3.97;;
46757;SDS011;32509;47.750;-3.396;2023-04-25T01:41:31;10.80;;;3.80;;
46757;SDS011;32509;47.750;-3.396;2023-04-25T01:43:57;5.78;;;3.50;;
46757;SDS011;32509;47.750;-3.396;2023-04-25T01:46:23;10.02;;;3.80;;
46757;SDS011;32509;47.750;-3.396;2023-04-25T01:48:49;8.85;;;3.38;;
46757;SDS011;32509;47.750;-3.396;2023-04-25T01:51:15;5.05;;;2.85;;
46757;SDS011;32509;47.750;-3.396;2023-04-25T01:53:41;9.20;;;3.90;;
46757;SDS011;32509;47.750;-3.396;2023-04-25T01:56:08;7.43;;;4.15;;
46757;SDS011;32509;47.750;-3.396;2023-04-25T01:58:34;10.13;;;3.90;;
46757;SDS011;32509;47.750;-3.396;2023-04-25T02:00:59;8.30;;;3.38;;
46757;SDS011;32509;47.750;-3.396;2023-04-25T02:03:25;8.88;;;4.03;;
46757;SDS011;32509;47.750;-3.396;2023-04-25T02:05:51;7.13;;;3.50;;
46757;SDS011;32509;47.750;-3.396;2023-04-25T02:08:17;7.03;;;3.50;;
46757;SDS011;32509;47.750;-3.396;2023-04-25T02:10:43;9.07;;;3.45;;
46757;SDS011;32509;47.750;-3.396;2023-04-25T02:13:09;8.27;;;4.07;;
46757;SDS011;32509;47.750;-3.396;2023-04-25T02:15:35;6.63;;;3.53;;
46757;SDS011;32509;47.750;-3.396;2023-04-25T02:18:01;7.95;;;3.30;;
46757;SDS011;32509;47.750;-3.396;2023-04-25T02:20:27;9.70;;;2.95;;
46757;SDS011;32509;47.750;-3.396;2023-04-25T02:22:53;9.60;;;3.78;;
46757;SDS011;32509;47.750;-3.396;2023-04-25T02:25:19;7.70;;;3.38;;
46757;SDS011;32509;47.750;-3.396;2023-04-25T02:27:46;14.30;;;4.40;;
46757;SDS011;32509;47.750;-3.396;2023-04-25T02:30:12;9.82;;;4.47;;
46757;SDS011;32509;47.750;-3.396;2023-04-25T02:32:38;5.57;;;2.95;;
46757;SDS011;32509;47.750;-3.396;2023-04-25T02:35:05;9.80;;;3.97;;
46757;SDS011;32509;47.750;-3.396;2023-04-25T02:37:35;9.23;;;3.55;;
46757;SDS011;32509;47.750;-3.396;2023-04-25T02:40:02;13.07;;;3.80;;
46757;SDS011;32509;47.750;-3.396;2023-04-25T02:42:29;7.18;;;3.63;;
46757;SDS011;32509;47.750;-3.396;2023-04-25T02:44:55;9.77;;;3.63;;
46757;SDS011;32509;47.750;-3.396;2023-04-25T02:47:21;12.40;;;4.05;;
46757;SDS011;32509;47.750;-3.396;2023-04-25T02:49:46;6.07;;;3.63;;
46757;SDS011;32509;47.750;-3.396;2023-04-25T02:52:12;9.30;;;3.97;;
46757;SDS011;32509;47.750;-3.396;2023-04-25T02:54:39;7.68;;;4.30;;
46757;SDS011;32509;47.750;-3.396;2023-04-25T02:57:06;7.43;;;4.53;;
46757;SDS011;32509;47.750;-3.396;2023-04-25T02:59:32;6.53;;;3.75;;
46757;SDS011;32509;47.750;-3.396;2023-04-25T03:01:58;7.90;;;4.07;;
46757;SDS011;32509;47.750;-3.396;2023-04-25T03:04:23;7.00;;;3.78;;
46757;SDS011;32509;47.750;-3.396;2023-04-25T03:06:50;6.28;;;3.78;;
46757;SDS011;32509;47.750;-3.396;2023-04-25T03:09:16;9.70;;;4.03;;
46757;SDS011;32509;47.750;-3.396;2023-04-25T03:11:41;7.32;;;4.20;;
46757;SDS011;32509;47.750;-3.396;2023-04-25T03:14:08;8.68;;;3.80;;
46757;SDS011;32509;47.750;-3.396;2023-04-25T03:16:35;5.50;;;3.40;;
46757;SDS011;32509;47.750;-3.396;2023-04-25T03:19:00;10.65;;;3.83;;
46757;SDS011;32509;47.750;-3.396;2023-04-25T03:21:27;8.55;;;3.40;;
46757;SDS011;32509;47.750;-3.396;2023-04-25T03:23:53;11.30;;;4.53;;
46757;SDS011;32509;47.750;-3.396;2023-04-25T03:26:18;9.40;;;4.15;;
46757;SDS011;32509;47.750;-3.396;2023-04-25T03:28:44;11.43;;;4.30;;
46757;SDS011;32509;47.750;-3.396;2023-04-25T03:31:10;7.45;;;4.25;;
46757;SDS011;32509;47.750;-3.396;2023-04-25T03:33:36;6.55;;;3.63;;
46757;SDS011;32509;47.750;-3.396;2023-04-25T03:36:01;8.07;;;3.72;;
46757;SDS011;32509;47.750;-3.396;2023-04-25T03:38:28;9.23;;;3.97;;
46757;SDS011;32509;47.750;-3.396;2023-04-25T03:40:54;12.15;;;3.67;;
46757;SDS011;32509;47.750;-3.396;2023-04-25T03:43:21;7.18;;;4.22;;
46757;SDS011;32509;47.750;-3.396;2023-04-25T03:45:47;9.98;;;4.13;;
46757;SDS011;32509;47.750;-3.396;2023-04-25T03:48:12;10.15;;;3.63;;
46757;SDS011;32509;47.750;-3.396;2023-04-25T03:50:38;12.30;;;4.57;;
46757;SDS011;32509;47.750;-3.396;2023-04-25T03:53:04;10.43;;;4.22;;
46757;SDS011;32509;47.750;-3.396;2023-04-25T03:55:30;7.30;;;4.25;;
46757;SDS011;32509;47.750;-3.396;2023-04-25T03:57:56;9.07;;;4.75;;
46757;SDS011;32509;47.750;-3.396;2023-04-25T04:00:23;8.48;;;3.67;;
46757;SDS011;32509;47.750;-3.396;2023-04-25T04:02:49;5.90;;;3.88;;
46757;SDS011;32509;47.750;-3.396;2023-04-25T04:05:14;7.93;;;4.28;;
46757;SDS011;32509;47.750;-3.396;2023-04-25T04:07:40;6.57;;;3.80;;
46757;SDS011;32509;47.750;-3.396;2023-04-25T04:10:08;10.57;;;4.63;;
46757;SDS011;32509;47.750;-3.396;2023-04-25T04:12:34;11.25;;;4.88;;
46757;SDS011;32509;47.750;-3.396;2023-04-25T04:15:01;9.50;;;4.50;;
46757;SDS011;32509;47.750;-3.396;2023-04-25T04:17:28;8.38;;;3.70;;
46757;SDS011;32509;47.750;-3.396;2023-04-25T04:19:55;10.52;;;4.45;;
46757;SDS011;32509;47.750;-3.396;2023-04-25T04:22:21;8.68;;;4.10;;
46757;SDS011;32509;47.750;-3.396;2023-04-25T04:24:47;12.23;;;4.65;;
46757;SDS011;32509;47.750;-3.396;2023-04-25T04:27:14;7.75;;;3.80;;
46757;SDS011;32509;47.750;-3.396;2023-04-25T04:29:45;9.00;;;4.15;;
46757;SDS011;32509;47.750;-3.396;2023-04-25T04:32:11;9.45;;;3.78;;
46757;SDS011;32509;47.750;-3.396;2023-04-25T04:34:38;8.02;;;3.72;;
46757;SDS011;32509;47.750;-3.396;2023-04-25T04:37:04;9.50;;;4.07;;
46757;SDS011;32509;47.750;-3.396;2023-04-25T04:39:32;6.22;;;4.65;;
46757;SDS011;32509;47.750;-3.396;2023-04-25T04:42:01;6.40;;;4.22;;
46757;SDS011;32509;47.750;-3.396;2023-04-25T04:44:28;9.13;;;4.45;;
46757;SDS011;32509;47.750;-3.396;2023-04-25T04:46:57;12.63;;;4.93;;
46757;SDS011;32509;47.750;-3.396;2023-04-25T04:49:23;8.93;;;4.40;;
46757;SDS011;32509;47.750;-3.396;2023-04-25T04:51:49;10.82;;;4.57;;
46757;SDS011;32509;47.750;-3.396;2023-04-25T04:54:15;10.07;;;3.85;;
46757;SDS011;32509;47.750;-3.396;2023-04-25T04:56:41;9.55;;;3.75;;
46757;SDS011;32509;47.750;-3.396;2023-04-25T04:59:07;9.00;;;3.95;;
46757;SDS011;32509;47.750;-3.396;2023-04-25T05:01:33;10.45;;;3.88;;
46757;SDS011;32509;47.750;-3.396;2023-04-25T05:04:00;7.38;;;3.85;;
46757;SDS011;32509;47.750;-3.396;2023-04-25T05:06:27;10.40;;;3.65;;
46757;SDS011;32509;47.750;-3.396;2023-04-25T05:08:54;11.73;;;4.43;;
46757;SDS011;32509;47.750;-3.396;2023-04-25T05:11:21;10.60;;;3.78;;
46757;SDS011;32509;47.750;-3.396;2023-04-25T05:13:48;7.00;;;3.63;;
46757;SDS011;32509;47.750;-3.396;2023-04-25T05:16:14;10.27;;;3.50;;
46757;SDS011;32509;47.750;-3.396;2023-04-25T05:18:40;7.72;;;4.47;;
46757;SDS011;32509;47.750;-3.396;2023-04-25T05:21:07;7.65;;;4.05;;
46757;SDS011;32509;47.750;-3.396;2023-04-25T05:23:33;6.50;;;3.75;;
46757;SDS011;32509;47.750;-3.396;2023-04-25T05:25:59;9.07;;;3.67;;
46757;SDS011;32509;47.750;-3.396;2023-04-25T05:28:25;4.88;;;3.50;;
46757;SDS011;32509;47.750;-3.396;2023-04-25T05:30:50;11.40;;;4.30;;
46757;SDS011;32509;47.750;-3.396;2023-04-25T05:33:17;8.82;;;3.67;;
46757;SDS011;32509;47.750;-3.396;2023-04-25T05:35:43;4.60;;;3.65;;
46757;SDS011;32509;47.750;-3.396;2023-04-25T05:38:09;12.85;;;3.92;;
46757;SDS011;32509;47.750;-3.396;2023-04-25T05:40:35;8.63;;;3.55;;
46757;SDS011;32509;47.750;-3.396;2023-04-25T05:43:01;7.45;;;3.45;;
46757;SDS011;32509;47.750;-3.396;2023-04-25T05:45:26;8.45;;;3.92;;
46757;SDS011;32509;47.750;-3.396;2023-04-25T05:47:52;7.53;;;3.05;;
46757;SDS011;32509;47.750;-3.396;2023-04-25T05:50:18;7.65;;;3.83;;
46757;SDS011;32509;47.750;-3.396;2023-04-25T05:52:47;10.63;;;3.95;;
46757;SDS011;32509;47.750;-3.396;2023-04-25T05:55:13;7.43;;;3.30;;
46757;SDS011;32509;47.750;-3.396;2023-04-25T05:57:39;4.68;;;3.17;;
46757;SDS011;32509;47.750;-3.396;2023-04-25T06:00:10;10.98;;;4.50;;
46757;SDS011;32509;47.750;-3.396;2023-04-25T06:02:41;7.95;;;3.33;;
46757;SDS011;32509;47.750;-3.396;2023-04-25T06:05:07;8.98;;;4.00;;
46757;SDS011;32509;47.750;-3.396;2023-04-25T06:07:33;7.40;;;3.60;;
46757;SDS011;32509;47.750;-3.396;2023-04-25T06:09:59;11.43;;;3.95;;
46757;SDS011;32509;47.750;-3.396;2023-04-25T06:12:26;11.02;;;3.20;;
46757;SDS011;32509;47.750;-3.396;2023-04-25T06:14:51;8.00;;;3.88;;
46757;SDS011;32509;47.750;-3.396;2023-04-25T06:17:17;7.88;;;3.33;;
46757;SDS011;32509;47.750;-3.396;2023-04-25T06:19:43;9.35;;;4.57;;
46757;SDS011;32509;47.750;-3.396;2023-04-25T06:22:09;8.55;;;3.75;;
46757;SDS011;32509;47.750;-3.396;2023-04-25T06:24:35;6.53;;;3.80;;
46757;SDS011;32509;47.750;-3.396;2023-04-25T06:27:01;7.20;;;4.43;;
46757;SDS011;32509;47.750;-3.396;2023-04-25T06:29:27;8.35;;;3.80;;
46757;SDS011;32509;47.750;-3.396;2023-04-25T06:31:53;7.18;;;4.05;;
46757;SDS011;32509;47.750;-3.396;2023-04-25T06:34:19;9.43;;;4.88;;
46757;SDS011;32509;47.750;-3.396;2023-04-25T06:36:45;8.57;;;3.78;;
46757;SDS011;32509;47.750;-3.396;2023-04-25T06:39:11;9.50;;;3.88;;
46757;SDS011;32509;47.750;-3.396;2023-04-25T06:41:37;8.98;;;3.95;;
46757;SDS011;32509;47.750;-3.396;2023-04-25T06:44:02;9.85;;;4.25;;
46757;SDS011;32509;47.750;-3.396;2023-04-25T06:46:28;6.35;;;3.67;;
46757;SDS011;32509;47.750;-3.396;2023-04-25T06:48:54;7.35;;;3.80;;
46757;SDS011;32509;47.750;-3.396;2023-04-25T06:51:20;7.50;;;4.25;;
46757;SDS011;32509;47.750;-3.396;2023-04-25T06:53:46;6.95;;;4.47;;
46757;SDS011;32509;47.750;-3.396;2023-04-25T06:56:11;9.18;;;3.90;;
46757;SDS011;32509;47.750;-3.396;2023-04-25T06:58:37;11.88;;;6.53;;
46757;SDS011;32509;47.750;-3.396;2023-04-25T07:01:03;7.50;;;4.53;;
46757;SDS011;32509;47.750;-3.396;2023-04-25T07:03:29;7.45;;;4.05;;
46757;SDS011;32509;47.750;-3.396;2023-04-25T07:05:55;7.45;;;3.90;;
46757;SDS011;32509;47.750;-3.396;2023-04-25T07:08:21;11.38;;;4.38;;
46757;SDS011;32509;47.750;-3.396;2023-04-25T07:10:46;7.07;;;3.78;;
46757;SDS011;32509;47.750;-3.396;2023-04-25T07:13:12;7.50;;;4.20;;
46757;SDS011;32509;47.750;-3.396;2023-04-25T07:15:38;6.40;;;3.40;;
46757;SDS011;32509;47.750;-3.396;2023-04-25T07:18:04;9.70;;;3.97;;
46757;SDS011;32509;47.750;-3.396;2023-04-25T07:20:29;6.53;;;4.80;;
46757;SDS011;32509;47.750;-3.396;2023-04-25T07:22:56;9.63;;;4.22;;
46757;SDS011;32509;47.750;-3.396;2023-04-25T07:25:22;9.30;;;4.45;;
46757;SDS011;32509;47.750;-3.396;2023-04-25T07:27:48;6.78;;;3.72;;
46757;SDS011;32509;47.750;-3.396;2023-04-25T07:30:14;11.73;;;5.18;;
46757;SDS011;32509;47.750;-3.396;2023-04-25T07:32:40;6.68;;;4.30;;
46757;SDS011;32509;47.750;-3.396;2023-04-25T07:35:05;6.95;;;4.43;;
46757;SDS011;32509;47.750;-3.396;2023-04-25T07:37:34;6.72;;;4.03;;
46757;SDS011;32509;47.750;-3.396;2023-04-25T07:40:01;7.78;;;4.63;;
46757;SDS011;32509;47.750;-3.396;2023-04-25T07:42:30;8.02;;;4.57;;
46757;SDS011;32509;47.750;-3.396;2023-04-25T07:44:57;7.88;;;5.05;;
46757;SDS011;32509;47.750;-3.396;2023-04-25T07:47:22;9.15;;;4.55;;
46757;SDS011;32509;47.750;-3.396;2023-04-25T07:49:49;5.50;;;4.72;;
46757;SDS011;32509;47.750;-3.396;2023-04-25T07:52:14;5.85;;;4.88;;
46757;SDS011;32509;47.750;-3.396;2023-04-25T07:54:40;10.10;;;6.32;;
46757;SDS011;32509;47.750;-3.396;2023-04-25T07:57:06;5.53;;;4.53;;
46757;SDS011;32509;47.750;-3.396;2023-04-25T07:59:32;7.50;;;4.80;;
46757;SDS011;32509;47.750;-3.396;2023-04-25T08:01:58;6.68;;;4.63;;
46757;SDS011;32509;47.750;-3.396;2023-04-25T08:04:25;11.30;;;5.07;;
46757;SDS011;32509;47.750;-3.396;2023-04-25T08:06:51;9.05;;;4.85;;
46757;SDS011;32509;47.750;-3.396;2023-04-25T08:09:19;7.50;;;4.13;;
46757;SDS011;32509;47.750;-3.396;2023-04-25T08:11:45;7.15;;;4.03;;
46757;SDS011;32509;47.750;-3.396;2023-04-25T08:14:11;5.18;;;3.60;;
46757;SDS011;32509;47.750;-3.396;2023-04-25T08:16:37;9.32;;;4.55;;
46757;SDS011;32509;47.750;-3.396;2023-04-25T08:19:03;17.45;;;6.82;;
46757;SDS011;32509;47.750;-3.396;2023-04-25T08:21:30;8.15;;;3.85;;
46757;SDS011;32509;47.750;-3.396;2023-04-25T08:23:56;9.25;;;4.22;;
46757;SDS011;32509;47.750;-3.396;2023-04-25T08:26:23;6.60;;;3.50;;
46757;SDS011;32509;47.750;-3.396;2023-04-25T08:28:50;5.93;;;3.75;;
46757;SDS011;32509;47.750;-3.396;2023-04-25T08:31:16;5.95;;;3.72;;
46757;SDS011;32509;47.750;-3.396;2023-04-25T08:33:42;5.50;;;3.72;;
46757;SDS011;32509;47.750;-3.396;2023-04-25T08:36:08;11.15;;;3.85;;
46757;SDS011;32509;47.750;-3.396;2023-04-25T08:38:33;10.23;;;4.07;;
46757;SDS011;32509;47.750;-3.396;2023-04-25T08:41:00;8.43;;;3.75;;
46757;SDS011;32509;47.750;-3.396;2023-04-25T08:43:26;3.95;;;3.63;;
46757;SDS011;32509;47.750;-3.396;2023-04-25T08:45:57;4.50;;;3.33;;
46757;SDS011;32509;47.750;-3.396;2023-04-25T08:48:26;8.38;;;3.55;;
46757;SDS011;32509;47.750;-3.396;2023-04-25T08:50:56;5.63;;;3.83;;
46757;SDS011;32509;47.750;-3.396;2023-04-25T08:53:27;6.30;;;3.60;;
46757;SDS011;32509;47.750;-3.396;2023-04-25T08:55:55;8.20;;;3.75;;
46757;SDS011;32509;47.750;-3.396;2023-04-25T08:58:22;6.65;;;3.38;;
46757;SDS011;32509;47.750;-3.396;2023-04-25T09:00:48;4.63;;;3.63;;
46757;SDS011;32509;47.750;-3.396;2023-04-25T09:03:15;6.85;;;3.05;;
46757;SDS011;32509;47.750;-3.396;2023-04-25T09:05:42;6.40;;;3.40;;
46757;SDS011;32509;47.750;-3.396;2023-04-25T09:08:08;5.68;;;3.17;;
46757;SDS011;32509;47.750;-3.396;2023-04-25T09:10:34;6.65;;;3.80;;
46757;SDS011;32509;47.750;-3.396;2023-04-25T09:15:50;6.25;;;3.55;;
46757;SDS011;32509;47.750;-3.396;2023-04-25T09:18:30;7.72;;;4.18;;
46757;SDS011;32509;47.750;-3.396;2023-04-25T09:21:04;6.95;;;3.83;;
46757;SDS011;32509;47.750;-3.396;2023-04-25T09:23:45;8.32;;;3.88;;
46757;SDS011;32509;47.750;-3.396;2023-04-25T09:26:16;7.25;;;3.45;;
46757;SDS011;32509;47.750;-3.396;2023-04-25T09:28:45;9.25;;;3.40;;
46757;SDS011;32509;47.750;-3.396;2023-04-25T09:31:20;5.88;;;3.60;;
46757;SDS011;32509;47.750;-3.396;2023-04-25T09:33:49;5.00;;;3.03;;
46757;SDS011;32509;47.750;-3.396;2023-04-25T09:36:14;5.70;;;3.67;;
46757;SDS011;32509;47.750;-3.396;2023-04-25T09:38:41;9.13;;;3.80;;
46757;SDS011;32509;47.750;-3.396;2023-04-25T09:41:08;7.43;;;2.92;;
46757;SDS011;32509;47.750;-3.396;2023-04-25T09:43:35;6.40;;;3.50;;
46757;SDS011;32509;47.750;-3.396;2023-04-25T09:46:01;4.22;;;2.72;;
46757;SDS011;32509;47.750;-3.396;2023-04-25T09:48:27;5.43;;;3.08;;
46757;SDS011;32509;47.750;-3.396;2023-04-25T09:51:15;5.57;;;2.58;;
46757;SDS011;32509;47.750;-3.396;2023-04-25T09:53:44;7.25;;;3.90;;
46757;SDS011;32509;47.750;-3.396;2023-04-25T09:56:14;4.22;;;2.80;;
46757;SDS011;32509;47.750;-3.396;2023-04-25T09:58:41;7.88;;;3.28;;
46757;SDS011;32509;47.750;-3.396;2023-04-25T10:01:07;6.97;;;3.10;;
46757;SDS011;32509;47.750;-3.396;2023-04-25T10:03:36;5.40;;;3.35;;
46757;SDS011;32509;47.750;-3.396;2023-04-25T10:06:14;6.40;;;3.88;;
46757;SDS011;32509;47.750;-3.396;2023-04-25T10:08:47;6.32;;;3.10;;
46757;SDS011;32509;47.750;-3.396;2023-04-25T10:11:16;4.95;;;3.33;;
46757;SDS011;32509;47.750;-3.396;2023-04-25T10:13:42;7.18;;;3.33;;
46757;SDS011;32509;47.750;-3.396;2023-04-25T10:16:09;5.88;;;4.10;;
46757;SDS011;32509;47.750;-3.396;2023-04-25T10:18:35;8.52;;;3.95;;
46757;SDS011;32509;47.750;-3.396;2023-04-25T10:21:03;4.85;;;2.90;;
46757;SDS011;32509;47.750;-3.396;2023-04-25T10:23:31;5.40;;;3.80;;
46757;SDS011;32509;47.750;-3.396;2023-04-25T10:25:59;6.32;;;3.17;;
46757;SDS011;32509;47.750;-3.396;2023-04-25T10:28:25;5.15;;;3.17;;
46757;SDS011;32509;47.750;-3.396;2023-04-25T10:31:04;7.43;;;3.28;;
46757;SDS011;32509;47.750;-3.396;2023-04-25T10:33:36;5.75;;;2.90;;
46757;SDS011;32509;47.750;-3.396;2023-04-25T10:36:13;4.15;;;2.60;;
46757;SDS011;32509;47.750;-3.396;2023-04-25T10:38:44;4.50;;;3.08;;
46757;SDS011;32509;47.750;-3.396;2023-04-25T10:41:11;6.65;;;3.13;;
46757;SDS011;32509;47.750;-3.396;2023-04-25T10:46:26;11.45;;;3.33;;
46757;SDS011;32509;47.750;-3.396;2023-04-25T10:48:53;6.82;;;3.00;;
46757;SDS011;32509;47.750;-3.396;2023-04-25T10:51:23;5.50;;;2.70;;
46757;SDS011;32509;47.750;-3.396;2023-04-25T10:56:20;5.30;;;3.10;;
46757;SDS011;32509;47.750;-3.396;2023-04-25T10:59:04;5.43;;;3.20;;
46757;SDS011;32509;47.750;-3.396;2023-04-25T11:01:41;3.67;;;2.50;;
46757;SDS011;32509;47.750;-3.396;2023-04-25T11:04:23;4.22;;;2.95;;
46757;SDS011;32509;47.750;-3.396;2023-04-25T11:07:07;7.63;;;3.33;;
46757;SDS011;32509;47.750;-3.396;2023-04-25T11:09:43;7.15;;;3.40;;
46757;SDS011;32509;47.750;-3.396;2023-04-25T11:12:10;5.78;;;3.13;;
46757;SDS011;32509;47.750;-3.396;2023-04-25T11:14:37;5.20;;;2.65;;
46757;SDS011;32509;47.750;-3.396;2023-04-25T11:17:03;4.30;;;3.00;;
46757;SDS011;32509;47.750;-3.396;2023-04-25T11:19:29;8.57;;;4.05;;
46757;SDS011;32509;47.750;-3.396;2023-04-25T11:21:55;5.85;;;2.90;;
46757;SDS011;32509;47.750;-3.396;2023-04-25T11:24:32;5.18;;;2.65;;
46757;SDS011;32509;47.750;-3.396;2023-04-25T11:27:04;5.85;;;3.67;;
46757;SDS011;32509;47.750;-3.396;2023-04-25T11:29:34;5.68;;;2.83;;
46757;SDS011;32509;47.750;-3.396;2023-04-25T11:32:00;6.47;;;3.10;;
46757;SDS011;32509;47.750;-3.396;2023-04-25T11:34:27;6.40;;;3.53;;
46757;SDS011;32509;47.750;-3.396;2023-04-25T11:36:55;6.28;;;2.50;;
46757;SDS011;32509;47.750;-3.396;2023-04-25T11:39:21;7.03;;;2.92;;
46757;SDS011;32509;47.750;-3.396;2023-04-25T11:41:48;8.30;;;2.95;;
46757;SDS011;32509;47.750;-3.396;2023-04-25T11:44:15;3.20;;;2.72;;
46757;SDS011;32509;47.750;-3.396;2023-04-25T11:46:42;5.07;;;2.72;;
46757;SDS011;32509;47.750;-3.396;2023-04-25T11:49:08;4.80;;;2.03;;
46757;SDS011;32509;47.750;-3.396;2023-04-25T11:51:41;3.05;;;2.60;;
46757;SDS011;32509;47.750;-3.396;2023-04-25T11:54:08;7.45;;;2.42;;
46757;SDS011;32509;47.750;-3.396;2023-04-25T11:56:34;6.03;;;2.40;;
46757;SDS011;32509;47.750;-3.396;2023-04-25T11:59:04;8.70;;;3.65;;
46757;SDS011;32509;47.750;-3.396;2023-04-25T12:01:35;5.55;;;2.85;;
46757;SDS011;32509;47.750;-3.396;2023-04-25T12:06:41;5.32;;;2.20;;
46757;SDS011;32509;47.750;-3.396;2023-04-25T12:09:10;5.10;;;2.50;;
46757;SDS011;32509;47.750;-3.396;2023-04-25T12:11:48;7.28;;;2.95;;
46757;SDS011;32509;47.750;-3.396;2023-04-25T12:14:27;6.43;;;2.47;;
46757;SDS011;32509;47.750;-3.396;2023-04-25T12:16:58;8.23;;;2.70;;
46757;SDS011;32509;47.750;-3.396;2023-04-25T12:19:26;6.55;;;2.90;;
46757;SDS011;32509;47.750;-3.396;2023-04-25T12:21:58;5.93;;;2.90;;
46757;SDS011;32509;47.750;-3.396;2023-04-25T12:24:26;5.15;;;2.75;;
46757;SDS011;32509;47.750;-3.396;2023-04-25T12:26:59;4.50;;;3.15;;
46757;SDS011;32509;47.750;-3.396;2023-04-25T12:29:27;4.10;;;3.00;;
46757;SDS011;32509;47.750;-3.396;2023-04-25T12:31:55;3.55;;;2.15;;
46757;SDS011;32509;47.750;-3.396;2023-04-25T12:34:21;8.73;;;2.83;;
46757;SDS011;32509;47.750;-3.396;2023-04-25T12:36:48;4.32;;;2.70;;
46757;SDS011;32509;47.750;-3.396;2023-04-25T12:39:18;3.80;;;2.38;;
46757;SDS011;32509;47.750;-3.396;2023-04-25T12:41:48;2.88;;;2.42;;
46757;SDS011;32509;47.750;-3.396;2023-04-25T12:44:15;4.45;;;2.78;;
46757;SDS011;32509;47.750;-3.396;2023-04-25T12:46:42;4.97;;;2.30;;
46757;SDS011;32509;47.750;-3.396;2023-04-25T12:49:08;8.27;;;3.05;;
46757;SDS011;32509;47.750;-3.396;2023-04-25T12:51:37;8.48;;;2.42;;
46757;SDS011;32509;47.750;-3.396;2023-04-25T12:54:04;5.05;;;3.05;;
46757;SDS011;32509;47.750;-3.396;2023-04-25T12:56:33;5.35;;;2.92;;
46757;SDS011;32509;47.750;-3.396;2023-04-25T12:59:00;4.43;;;2.30;;
46757;SDS011;32509;47.750;-3.396;2023-04-25T13:01:28;5.15;;;2.50;;
46757;SDS011;32509;47.750;-3.396;2023-04-25T13:03:54;5.60;;;3.17;;
46757;SDS011;32509;47.750;-3.396;2023-04-25T13:06:20;5.60;;;3.08;;
46757;SDS011;32509;47.750;-3.396;2023-04-25T13:08:48;4.57;;;2.58;;
46757;SDS011;32509;47.750;-3.396;2023-04-25T13:11:14;3.97;;;2.70;;
46757;SDS011;32509;47.750;-3.396;2023-04-25T13:13:40;5.15;;;2.40;;
46757;SDS011;32509;47.750;-3.396;2023-04-25T13:16:06;7.03;;;3.10;;
46757;SDS011;32509;47.750;-3.396;2023-04-25T13:18:33;4.13;;;2.58;;
46757;SDS011;32509;47.750;-3.396;2023-04-25T13:20:59;4.25;;;2.80;;
46757;SDS011;32509;47.750;-3.396;2023-04-25T13:23:26;6.13;;;3.17;;
46757;SDS011;32509;47.750;-3.396;2023-04-25T13:25:52;5.25;;;2.60;;
46757;SDS011;32509;47.750;-3.396;2023-04-25T13:28:20;7.65;;;2.90;;
46757;SDS011;32509;47.750;-3.396;2023-04-25T13:30:46;6.35;;;2.88;;
46757;SDS011;32509;47.750;-3.396;2023-04-25T13:33:13;6.38;;;3.22;;
46757;SDS011;32509;47.750;-3.396;2023-04-25T13:35:39;7.63;;;2.80;;
46757;SDS011;32509;47.750;-3.396;2023-04-25T13:38:05;5.00;;;2.80;;
46757;SDS011;32509;47.750;-3.396;2023-04-25T13:40:31;7.00;;;2.72;;
46757;SDS011;32509;47.750;-3.396;2023-04-25T13:42:57;7.47;;;2.90;;
46757;SDS011;32509;47.750;-3.396;2023-04-25T13:45:23;4.88;;;3.15;;
46757;SDS011;32509;47.750;-3.396;2023-04-25T13:47:49;5.68;;;2.80;;
46757;SDS011;32509;47.750;-3.396;2023-04-25T13:50:15;7.75;;;3.15;;
46757;SDS011;32509;47.750;-3.396;2023-04-25T13:52:41;7.30;;;3.17;;
46757;SDS011;32509;47.750;-3.396;2023-04-25T13:55:07;5.45;;;3.42;;
46757;SDS011;32509;47.750;-3.396;2023-04-25T13:57:34;17.98;;;3.80;;
46757;SDS011;32509;47.750;-3.396;2023-04-25T13:59:59;14.77;;;3.80;;
46757;SDS011;32509;47.750;-3.396;2023-04-25T14:02:29;26.38;;;4.57;;
46757;SDS011;32509;47.750;-3.396;2023-04-25T14:04:55;15.32;;;4.38;;
46757;SDS011;32509;47.750;-3.396;2023-04-25T14:07:21;47.22;;;5.15;;
46757;SDS011;32509;47.750;-3.396;2023-04-25T14:09:47;10.93;;;3.72;;
46757;SDS011;32509;47.750;-3.396;2023-04-25T14:12:13;6.05;;;3.85;;
46757;SDS011;32509;47.750;-3.396;2023-04-25T14:14:38;11.75;;;3.53;;
46757;SDS011;32509;47.750;-3.396;2023-04-25T14:17:04;4.45;;;2.90;;
46757;SDS011;32509;47.750;-3.396;2023-04-25T14:19:31;6.78;;;3.30;;
46757;SDS011;32509;47.750;-3.396;2023-04-25T14:21:57;8.30;;;3.28;;
46757;SDS011;32509;47.750;-3.396;2023-04-25T14:24:23;8.73;;;4.60;;
46757;SDS011;32509;47.750;-3.396;2023-04-25T14:26:48;11.40;;;3.97;;
46757;SDS011;32509;47.750;-3.396;2023-04-25T14:29:14;9.15;;;4.03;;
46757;SDS011;32509;47.750;-3.396;2023-04-25T14:31:40;8.05;;;3.65;;
46757;SDS011;32509;47.750;-3.396;2023-04-25T14:34:06;12.82;;;4.05;;
46757;SDS011;32509;47.750;-3.396;2023-04-25T14:36:32;49.17;;;5.78;;
46757;SDS011;32509;47.750;-3.396;2023-04-25T14:38:59;17.08;;;5.43;;
46757;SDS011;32509;47.750;-3.396;2023-04-25T14:41:25;22.75;;;5.07;;